sensor_id;sensor_type;location;lat;lon;timestamp;temperature;humidity
32446;DHT22;18899;50.748;7.102;2023-05-10T00:01:21;13.30;99.90
32446;DHT22;18899;50.748;7.102;2023-05-10T00:03:47;13.30;99.90
32446;DHT22;18899;50.748;7.102;2023-05-10T00:06:12;13.30;99.90
32446;DHT22;18899;50.748;7.102;2023-05-10T00:08:38;13.30;99.90
32446;DHT22;18899;50.748;7.102;2023-05-10T00:11:04;13.30;99.90
32446;DHT22;18899;50.748;7.102;2023-05-10T00:13:29;13.30;99.90
32446;DHT22;18899;50.748;7.102;2023-05-10T00:15:55;13.30;99.90
32446;DHT22;18899;50.748;7.102;2023-05-10T00:18:20;13.30;99.90
32446;DHT22;18899;50.748;7.102;2023-05-10T00:20:46;13.30;99.90
32446;DHT22;18899;50.748;7.102;2023-05-10T00:23:12;13.30;99.90
32446;DHT22;18899;50.748;7.102;2023-05-10T00:25:37;13.30;99.90
32446;DHT22;18899;50.748;7.102;2023-05-10T00:28:03;13.40;99.90
32446;DHT22;18899;50.748;7.102;2023-05-10T00:30:29;13.30;99.90
32446;DHT22;18899;50.748;7.102;2023-05-10T00:32:54;13.30;99.90
32446;DHT22;18899;50.748;7.102;2023-05-10T00:35:20;13.30;99.90
32446;DHT22;18899;50.748;7.102;2023-05-10T00:37:46;13.30;99.90
32446;DHT22;18899;50.748;7.102;2023-05-10T00:40:12;13.30;99.90
32446;DHT22;18899;50.748;7.102;2023-05-10T00:42:38;13.30;99.90
32446;DHT22;18899;50.748;7.102;2023-05-10T00:45:04;13.30;99.90
32446;DHT22;18899;50.748;7.102;2023-05-10T00:47:29;13.30;99.90
32446;DHT22;18899;50.748;7.102;2023-05-10T00:49:55;13.30;99.90
32446;DHT22;18899;50.748;7.102;2023-05-10T00:52:21;13.30;99.90
32446;DHT22;18899;50.748;7.102;2023-05-10T00:54:50;13.30;99.90
32446;DHT22;18899;50.748;7.102;2023-05-10T00:57:17;13.30;99.90
32446;DHT22;18899;50.748;7.102;2023-05-10T00:59:42;13.30;99.90
32446;DHT22;18899;50.748;7.102;2023-05-10T01:02:09;13.30;99.90
32446;DHT22;18899;50.748;7.102;2023-05-10T01:04:35;13.30;99.90
32446;DHT22;18899;50.748;7.102;2023-05-10T01:07:00;13.30;99.90
32446;DHT22;18899;50.748;7.102;2023-05-10T01:09:27;13.30;99.90
32446;DHT22;18899;50.748;7.102;2023-05-10T01:11:53;13.30;99.90
32446;DHT22;18899;50.748;7.102;2023-05-10T01:14:19;13.40;99.90
32446;DHT22;18899;50.748;7.102;2023-05-10T01:16:47;13.40;99.90
32446;DHT22;18899;50.748;7.102;2023-05-10T01:19:18;13.40;99.90
32446;DHT22;18899;50.748;7.102;2023-05-10T01:21:58;13.30;99.90
32446;DHT22;18899;50.748;7.102;2023-05-10T01:30:24;13.40;99.90
32446;DHT22;18899;50.748;7.102;2023-05-10T01:33:21;13.40;99.90
32446;DHT22;18899;50.748;7.102;2023-05-10T01:36:14;13.40;99.90
32446;DHT22;18899;50.748;7.102;2023-05-10T01:38:50;13.40;99.90
32446;DHT22;18899;50.748;7.102;2023-05-10T01:41:35;13.30;99.90
32446;DHT22;18899;50.748;7.102;2023-05-10T01:47:04;13.30;99.90
32446;DHT22;18899;50.748;7.102;2023-05-10T01:49:34;13.40;99.90
32446;DHT22;18899;50.748;7.102;2023-05-10T01:52:12;13.30;99.90
32446;DHT22;18899;50.748;7.102;2023-05-10T01:54:43;13.30;99.90
32446;DHT22;18899;50.748;7.102;2023-05-10T01:57:10;13.30;99.90
32446;DHT22;18899;50.748;7.102;2023-05-10T01:59:40;13.30;99.90
32446;DHT22;18899;50.748;7.102;2023-05-10T02:02:08;13.30;99.90
32446;DHT22;18899;50.748;7.102;2023-05-10T02:04:38;13.20;99.90
32446;DHT22;18899;50.748;7.102;2023-05-10T02:07:05;13.20;99.90
32446;DHT22;18899;50.748;7.102;2023-05-10T02:09:33;13.40;99.90
32446;DHT22;18899;50.748;7.102;2023-05-10T02:12:02;13.30;99.90
32446;DHT22;18899;50.748;7.102;2023-05-10T02:14:30;13.30;99.90
32446;DHT22;18899;50.748;7.102;2023-05-10T02:16:58;13.40;99.90
32446;DHT22;18899;50.748;7.102;2023-05-10T02:19:25;13.40;99.90
32446;DHT22;18899;50.748;7.102;2023-05-10T02:21:51;13.40;99.90
32446;DHT22;18899;50.748;7.102;2023-05-10T02:24:17;13.40;99.90
32446;DHT22;18899;50.748;7.102;2023-05-10T02:26:45;13.30;99.90
32446;DHT22;18899;50.748;7.102;2023-05-10T02:29:12;13.30;99.90
32446;DHT22;18899;50.748;7.102;2023-05-10T02:31:39;13.30;99.90
32446;DHT22;18899;50.748;7.102;2023-05-10T02:34:09;13.30;99.90
32446;DHT22;18899;50.748;7.102;2023-05-10T02:36:36;13.30;99.90
32446;DHT22;18899;50.748;7.102;2023-05-10T02:39:03;13.30;99.90
32446;DHT22;18899;50.748;7.102;2023-05-10T02:41:31;13.30;99.90
32446;DHT22;18899;50.748;7.102;2023-05-10T02:43:59;13.30;99.90
32446;DHT22;18899;50.748;7.102;2023-05-10T02:46:26;13.40;99.90
32446;DHT22;18899;50.748;7.102;2023-05-10T02:48:52;13.30;99.90
32446;DHT22;18899;50.748;7.102;2023-05-10T02:51:18;13.30;99.90
32446;DHT22;18899;50.748;7.102;2023-05-10T02:53:46;13.30;99.90
32446;DHT22;18899;50.748;7.102;2023-05-10T02:56:15;13.30;99.90
32446;DHT22;18899;50.748;7.102;2023-05-10T02:58:44;13.30;99.90
32446;DHT22;18899;50.748;7.102;2023-05-10T03:01:10;13.30;99.90
32446;DHT22;18899;50.748;7.102;2023-05-10T03:03:35;13.30;99.90
32446;DHT22;18899;50.748;7.102;2023-05-10T03:06:01;13.30;99.90
32446;DHT22;18899;50.748;7.102;2023-05-10T03:08:26;13.30;99.90
32446;DHT22;18899;50.748;7.102;2023-05-10T03:11:16;13.40;99.90
32446;DHT22;18899;50.748;7.102;2023-05-10T03:14:10;13.30;99.90
32446;DHT22;18899;50.748;7.102;2023-05-10T03:16:44;13.40;99.90
32446;DHT22;18899;50.748;7.102;2023-05-10T03:19:27;13.40;99.90
32446;DHT22;18899;50.748;7.102;2023-05-10T03:21:59;13.40;99.90
32446;DHT22;18899;50.748;7.102;2023-05-10T03:24:27;13.40;99.90
32446;DHT22;18899;50.748;7.102;2023-05-10T03:26:55;13.40;99.90
32446;DHT22;18899;50.748;7.102;2023-05-10T03:29:22;13.30;99.90
32446;DHT22;18899;50.748;7.102;2023-05-10T03:31:50;13.40;99.90
32446;DHT22;18899;50.748;7.102;2023-05-10T03:34:16;13.40;99.90
32446;DHT22;18899;50.748;7.102;2023-05-10T03:36:42;13.40;99.90
32446;DHT22;18899;50.748;7.102;2023-05-10T03:39:08;13.40;99.90
32446;DHT22;18899;50.748;7.102;2023-05-10T03:41:34;13.60;99.90
32446;DHT22;18899;50.748;7.102;2023-05-10T03:43:59;13.50;99.90
32446;DHT22;18899;50.748;7.102;2023-05-10T03:46:25;13.50;99.90
32446;DHT22;18899;50.748;7.102;2023-05-10T03:48:50;13.50;99.90
32446;DHT22;18899;50.748;7.102;2023-05-10T03:51:16;13.40;99.90
32446;DHT22;18899;50.748;7.102;2023-05-10T03:53:41;13.40;99.90
32446;DHT22;18899;50.748;7.102;2023-05-10T03:56:07;13.40;99.90
32446;DHT22;18899;50.748;7.102;2023-05-10T03:58:32;13.40;99.90
32446;DHT22;18899;50.748;7.102;2023-05-10T04:00:58;13.40;99.90
32446;DHT22;18899;50.748;7.102;2023-05-10T04:03:23;13.40;99.90
32446;DHT22;18899;50.748;7.102;2023-05-10T04:05:59;13.50;99.90
32446;DHT22;18899;50.748;7.102;2023-05-10T04:08:25;13.50;99.90
32446;DHT22;18899;50.748;7.102;2023-05-10T04:10:51;13.60;99.90
32446;DHT22;18899;50.748;7.102;2023-05-10T04:13:16;13.60;99.90
32446;DHT22;18899;50.748;7.102;2023-05-10T04:15:42;13.60;99.90
32446;DHT22;18899;50.748;7.102;2023-05-10T04:18:08;13.70;99.90
32446;DHT22;18899;50.748;7.102;2023-05-10T04:20:34;13.70;99.90
32446;DHT22;18899;50.748;7.102;2023-05-10T04:22:59;13.70;99.90
32446;DHT22;18899;50.748;7.102;2023-05-10T04:25:25;13.80;99.90
32446;DHT22;18899;50.748;7.102;2023-05-10T04:27:50;13.90;99.90
32446;DHT22;18899;50.748;7.102;2023-05-10T04:30:17;13.90;99.90
32446;DHT22;18899;50.748;7.102;2023-05-10T04:32:42;14.00;99.90
32446;DHT22;18899;50.748;7.102;2023-05-10T04:35:08;14.00;99.90
32446;DHT22;18899;50.748;7.102;2023-05-10T04:37:35;13.90;99.90
32446;DHT22;18899;50.748;7.102;2023-05-10T04:40:02;13.90;99.90
32446;DHT22;18899;50.748;7.102;2023-05-10T04:42:28;13.90;99.90
32446;DHT22;18899;50.748;7.102;2023-05-10T04:44:54;14.00;99.90
32446;DHT22;18899;50.748;7.102;2023-05-10T04:47:20;14.00;99.90
32446;DHT22;18899;50.748;7.102;2023-05-10T04:49:45;14.00;99.90
32446;DHT22;18899;50.748;7.102;2023-05-10T04:52:11;14.00;99.90
32446;DHT22;18899;50.748;7.102;2023-05-10T04:54:37;14.00;99.90
32446;DHT22;18899;50.748;7.102;2023-05-10T04:57:02;14.00;99.90
32446;DHT22;18899;50.748;7.102;2023-05-10T04:59:28;14.10;99.90
32446;DHT22;18899;50.748;7.102;2023-05-10T05:01:53;14.10;99.90
32446;DHT22;18899;50.748;7.102;2023-05-10T05:04:19;14.10;99.90
32446;DHT22;18899;50.748;7.102;2023-05-10T05:06:44;14.10;99.90
32446;DHT22;18899;50.748;7.102;2023-05-10T05:09:10;14.20;99.90
32446;DHT22;18899;50.748;7.102;2023-05-10T05:11:35;14.20;99.90
32446;DHT22;18899;50.748;7.102;2023-05-10T05:14:01;14.20;99.90
32446;DHT22;18899;50.748;7.102;2023-05-10T05:16:27;14.20;99.90
32446;DHT22;18899;50.748;7.102;2023-05-10T05:18:52;14.30;99.90
32446;DHT22;18899;50.748;7.102;2023-05-10T05:21:18;14.30;99.90
32446;DHT22;18899;50.748;7.102;2023-05-10T05:23:45;14.40;99.90
32446;DHT22;18899;50.748;7.102;2023-05-10T05:26:10;14.40;99.90
32446;DHT22;18899;50.748;7.102;2023-05-10T05:28:37;14.30;99.90
32446;DHT22;18899;50.748;7.102;2023-05-10T05:31:04;14.30;99.90
32446;DHT22;18899;50.748;7.102;2023-05-10T05:33:30;14.30;99.90
32446;DHT22;18899;50.748;7.102;2023-05-10T05:35:56;14.30;99.90
32446;DHT22;18899;50.748;7.102;2023-05-10T05:38:22;14.30;99.90
32446;DHT22;18899;50.748;7.102;2023-05-10T05:40:47;14.30;99.90
32446;DHT22;18899;50.748;7.102;2023-05-10T05:43:13;14.50;99.90
32446;DHT22;18899;50.748;7.102;2023-05-10T05:45:38;14.50;99.90
32446;DHT22;18899;50.748;7.102;2023-05-10T05:48:04;14.60;99.90
32446;DHT22;18899;50.748;7.102;2023-05-10T05:50:30;14.60;99.90
32446;DHT22;18899;50.748;7.102;2023-05-10T05:52:55;14.70;99.90
32446;DHT22;18899;50.748;7.102;2023-05-10T05:55:22;14.80;99.90
32446;DHT22;18899;50.748;7.102;2023-05-10T05:57:47;14.90;99.90
32446;DHT22;18899;50.748;7.102;2023-05-10T06:00:13;15.00;99.90
32446;DHT22;18899;50.748;7.102;2023-05-10T06:02:39;15.00;99.90
32446;DHT22;18899;50.748;7.102;2023-05-10T06:05:05;15.10;99.90
32446;DHT22;18899;50.748;7.102;2023-05-10T06:07:30;15.20;99.90
32446;DHT22;18899;50.748;7.102;2023-05-10T06:09:56;15.20;99.90
32446;DHT22;18899;50.748;7.102;2023-05-10T06:12:21;15.40;99.90
32446;DHT22;18899;50.748;7.102;2023-05-10T06:14:47;15.60;99.90
32446;DHT22;18899;50.748;7.102;2023-05-10T06:17:12;15.50;99.90
32446;DHT22;18899;50.748;7.102;2023-05-10T06:19:38;15.60;99.90
32446;DHT22;18899;50.748;7.102;2023-05-10T06:22:04;15.60;99.90
32446;DHT22;18899;50.748;7.102;2023-05-10T06:24:29;15.70;99.90
32446;DHT22;18899;50.748;7.102;2023-05-10T06:26:55;15.80;99.90
32446;DHT22;18899;50.748;7.102;2023-05-10T06:29:20;15.80;99.90
32446;DHT22;18899;50.748;7.102;2023-05-10T06:31:46;15.80;99.90
32446;DHT22;18899;50.748;7.102;2023-05-10T06:34:11;15.80;99.90
32446;DHT22;18899;50.748;7.102;2023-05-10T06:36:37;15.80;99.90
32446;DHT22;18899;50.748;7.102;2023-05-10T06:39:03;15.80;99.90
32446;DHT22;18899;50.748;7.102;2023-05-10T06:41:28;15.60;99.90
32446;DHT22;18899;50.748;7.102;2023-05-10T06:43:54;15.50;99.90
32446;DHT22;18899;50.748;7.102;2023-05-10T06:46:19;15.60;99.90
32446;DHT22;18899;50.748;7.102;2023-05-10T06:48:45;15.50;99.90
32446;DHT22;18899;50.748;7.102;2023-05-10T06:51:11;15.50;99.90
32446;DHT22;18899;50.748;7.102;2023-05-10T06:53:36;15.60;99.90
32446;DHT22;18899;50.748;7.102;2023-05-10T06:56:02;15.50;99.90
32446;DHT22;18899;50.748;7.102;2023-05-10T06:58:28;15.60;99.90
32446;DHT22;18899;50.748;7.102;2023-05-10T07:00:54;15.60;99.90
32446;DHT22;18899;50.748;7.102;2023-05-10T07:03:19;15.60;99.90
32446;DHT22;18899;50.748;7.102;2023-05-10T07:05:45;15.60;99.90
32446;DHT22;18899;50.748;7.102;2023-05-10T07:08:10;15.40;99.90
32446;DHT22;18899;50.748;7.102;2023-05-10T07:10:36;15.50;99.90
32446;DHT22;18899;50.748;7.102;2023-05-10T07:13:01;15.50;99.90
32446;DHT22;18899;50.748;7.102;2023-05-10T07:15:27;15.30;99.90
32446;DHT22;18899;50.748;7.102;2023-05-10T07:17:53;15.40;99.90
32446;DHT22;18899;50.748;7.102;2023-05-10T07:20:18;15.20;99.90
32446;DHT22;18899;50.748;7.102;2023-05-10T07:22:44;15.30;99.90
32446;DHT22;18899;50.748;7.102;2023-05-10T07:25:10;15.30;99.90
32446;DHT22;18899;50.748;7.102;2023-05-10T07:27:36;15.40;99.90
32446;DHT22;18899;50.748;7.102;2023-05-10T07:30:01;15.30;99.90
32446;DHT22;18899;50.748;7.102;2023-05-10T07:32:27;15.40;99.90
32446;DHT22;18899;50.748;7.102;2023-05-10T07:34:53;15.40;99.90
32446;DHT22;18899;50.748;7.102;2023-05-10T07:37:18;15.50;99.90
32446;DHT22;18899;50.748;7.102;2023-05-10T07:39:44;15.50;99.90
32446;DHT22;18899;50.748;7.102;2023-05-10T07:42:09;15.60;99.90
32446;DHT22;18899;50.748;7.102;2023-05-10T07:44:35;15.60;99.90
32446;DHT22;18899;50.748;7.102;2023-05-10T07:47:00;15.80;99.90
32446;DHT22;18899;50.748;7.102;2023-05-10T07:49:26;15.70;99.90
32446;DHT22;18899;50.748;7.102;2023-05-10T07:51:51;15.70;99.90
32446;DHT22;18899;50.748;7.102;2023-05-10T07:54:17;15.70;99.90
32446;DHT22;18899;50.748;7.102;2023-05-10T07:56:43;15.70;99.90
32446;DHT22;18899;50.748;7.102;2023-05-10T07:59:16;15.60;99.90
32446;DHT22;18899;50.748;7.102;2023-05-10T08:01:42;15.70;99.90
32446;DHT22;18899;50.748;7.102;2023-05-10T08:04:08;15.70;99.90
32446;DHT22;18899;50.748;7.102;2023-05-10T08:06:34;15.80;99.90
32446;DHT22;18899;50.748;7.102;2023-05-10T08:09:00;15.80;99.90
32446;DHT22;18899;50.748;7.102;2023-05-10T08:11:26;15.70;99.90
32446;DHT22;18899;50.748;7.102;2023-05-10T08:13:53;15.70;99.90
32446;DHT22;18899;50.748;7.102;2023-05-10T08:16:19;15.90;99.90
32446;DHT22;18899;50.748;7.102;2023-05-10T08:18:46;15.80;99.90
32446;DHT22;18899;50.748;7.102;2023-05-10T08:21:12;15.80;99.90
32446;DHT22;18899;50.748;7.102;2023-05-10T08:23:38;15.80;99.90
32446;DHT22;18899;50.748;7.102;2023-05-10T08:26:04;15.90;99.90
32446;DHT22;18899;50.748;7.102;2023-05-10T08:28:30;16.10;99.90
32446;DHT22;18899;50.748;7.102;2023-05-10T08:30:55;16.30;99.90
32446;DHT22;18899;50.748;7.102;2023-05-10T08:33:21;16.50;99.90
32446;DHT22;18899;50.748;7.102;2023-05-10T08:35:46;16.60;99.90
32446;DHT22;18899;50.748;7.102;2023-05-10T08:38:12;16.60;99.90
32446;DHT22;18899;50.748;7.102;2023-05-10T08:40:42;16.80;99.90
32446;DHT22;18899;50.748;7.102;2023-05-10T08:43:09;17.10;99.90
32446;DHT22;18899;50.748;7.102;2023-05-10T08:45:44;17.20;99.90
32446;DHT22;18899;50.748;7.102;2023-05-10T08:48:13;17.60;99.90
32446;DHT22;18899;50.748;7.102;2023-05-10T08:50:40;17.80;99.90
32446;DHT22;18899;50.748;7.102;2023-05-10T08:53:10;17.70;99.90
32446;DHT22;18899;50.748;7.102;2023-05-10T08:55:37;17.50;99.90
32446;DHT22;18899;50.748;7.102;2023-05-10T08:58:04;17.70;99.90
32446;DHT22;18899;50.748;7.102;2023-05-10T09:00:30;17.70;99.90
32446;DHT22;18899;50.748;7.102;2023-05-10T09:03:00;17.40;99.90
32446;DHT22;18899;50.748;7.102;2023-05-10T09:05:26;17.30;99.90
32446;DHT22;18899;50.748;7.102;2023-05-10T09:07:52;17.30;99.90
32446;DHT22;18899;50.748;7.102;2023-05-10T09:10:18;17.10;99.90
32446;DHT22;18899;50.748;7.102;2023-05-10T09:12:44;16.80;99.90
32446;DHT22;18899;50.748;7.102;2023-05-10T09:15:11;16.70;99.90
32446;DHT22;18899;50.748;7.102;2023-05-10T09:17:38;16.50;99.90
32446;DHT22;18899;50.748;7.102;2023-05-10T09:20:04;16.70;99.90
32446;DHT22;18899;50.748;7.102;2023-05-10T09:22:30;16.40;99.90
32446;DHT22;18899;50.748;7.102;2023-05-10T09:25:09;16.30;99.90
32446;DHT22;18899;50.748;7.102;2023-05-10T09:27:37;16.30;99.90
32446;DHT22;18899;50.748;7.102;2023-05-10T09:30:03;16.40;99.90
32446;DHT22;18899;50.748;7.102;2023-05-10T09:32:57;16.10;99.90
32446;DHT22;18899;50.748;7.102;2023-05-10T09:35:24;16.30;99.90
32446;DHT22;18899;50.748;7.102;2023-05-10T09:37:53;16.20;99.90
32446;DHT22;18899;50.748;7.102;2023-05-10T09:40:20;16.40;99.90
32446;DHT22;18899;50.748;7.102;2023-05-10T09:43:06;16.70;99.90
32446;DHT22;18899;50.748;7.102;2023-05-10T09:45:34;16.80;99.90
32446;DHT22;18899;50.748;7.102;2023-05-10T09:48:02;16.80;99.90
32446;DHT22;18899;50.748;7.102;2023-05-10T09:50:28;16.90;99.90
32446;DHT22;18899;50.748;7.102;2023-05-10T09:52:58;17.20;99.90
32446;DHT22;18899;50.748;7.102;2023-05-10T09:55:27;17.40;99.90
32446;DHT22;18899;50.748;7.102;2023-05-10T09:58:03;17.40;99.90
32446;DHT22;18899;50.748;7.102;2023-05-10T10:00:34;17.70;99.90
32446;DHT22;18899;50.748;7.102;2023-05-10T10:03:00;18.30;99.90
32446;DHT22;18899;50.748;7.102;2023-05-10T10:05:34;18.60;99.90
32446;DHT22;18899;50.748;7.102;2023-05-10T10:08:03;18.60;99.90
32446;DHT22;18899;50.748;7.102;2023-05-10T10:10:31;18.50;99.90
32446;DHT22;18899;50.748;7.102;2023-05-10T10:12:57;18.50;99.90
32446;DHT22;18899;50.748;7.102;2023-05-10T10:15:23;18.30;99.90
32446;DHT22;18899;50.748;7.102;2023-05-10T10:17:49;18.50;99.90
32446;DHT22;18899;50.748;7.102;2023-05-10T10:20:16;18.80;99.90
32446;DHT22;18899;50.748;7.102;2023-05-10T10:22:42;19.10;99.90
32446;DHT22;18899;50.748;7.102;2023-05-10T10:25:15;19.40;99.90
32446;DHT22;18899;50.748;7.102;2023-05-10T10:30:39;19.70;99.90
32446;DHT22;18899;50.748;7.102;2023-05-10T10:36:06;20.10;99.90
32446;DHT22;18899;50.748;7.102;2023-05-10T10:38:55;19.80;99.90
32446;DHT22;18899;50.748;7.102;2023-05-10T10:41:30;19.30;99.90
32446;DHT22;18899;50.748;7.102;2023-05-10T10:44:33;18.80;99.90
32446;DHT22;18899;50.748;7.102;2023-05-10T10:52:36;18.00;99.90
32446;DHT22;18899;50.748;7.102;2023-05-10T10:55:07;18.30;99.90
32446;DHT22;18899;50.748;7.102;2023-05-10T10:57:55;18.70;99.90
32446;DHT22;18899;50.748;7.102;2023-05-10T11:03:12;19.10;99.90
32446;DHT22;18899;50.748;7.102;2023-05-10T11:05:47;19.10;99.90
32446;DHT22;18899;50.748;7.102;2023-05-10T11:08:18;19.20;99.90
32446;DHT22;18899;50.748;7.102;2023-05-10T11:13:42;19.00;99.90
32446;DHT22;18899;50.748;7.102;2023-05-10T11:16:18;19.20;99.90
32446;DHT22;18899;50.748;7.102;2023-05-10T11:19:04;19.40;99.90
32446;DHT22;18899;50.748;7.102;2023-05-10T11:21:31;20.10;99.90
32446;DHT22;18899;50.748;7.102;2023-05-10T11:23:58;20.20;99.90
32446;DHT22;18899;50.748;7.102;2023-05-10T11:26:32;20.50;99.90
32446;DHT22;18899;50.748;7.102;2023-05-10T11:28:59;20.80;99.90
32446;DHT22;18899;50.748;7.102;2023-05-10T11:31:26;21.00;99.90
32446;DHT22;18899;50.748;7.102;2023-05-10T11:33:59;21.00;99.90
32446;DHT22;18899;50.748;7.102;2023-05-10T11:36:28;21.20;99.90
32446;DHT22;18899;50.748;7.102;2023-05-10T11:38:55;21.30;99.90
32446;DHT22;18899;50.748;7.102;2023-05-10T11:41:22;21.00;99.90
32446;DHT22;18899;50.748;7.102;2023-05-10T11:43:55;20.90;99.90
32446;DHT22;18899;50.748;7.102;2023-05-10T11:46:23;20.90;99.90
32446;DHT22;18899;50.748;7.102;2023-05-10T11:48:55;20.80;99.90
32446;DHT22;18899;50.748;7.102;2023-05-10T11:51:22;20.90;99.90
32446;DHT22;18899;50.748;7.102;2023-05-10T11:53:50;21.10;99.90
32446;DHT22;18899;50.748;7.102;2023-05-10T11:56:16;21.40;99.90
32446;DHT22;18899;50.748;7.102;2023-05-10T11:58:41;21.60;99.90
32446;DHT22;18899;50.748;7.102;2023-05-10T12:01:07;21.40;99.90
32446;DHT22;18899;50.748;7.102;2023-05-10T12:03:34;21.90;99.90
32446;DHT22;18899;50.748;7.102;2023-05-10T12:06:01;21.80;99.90
32446;DHT22;18899;50.748;7.102;2023-05-10T12:08:28;21.90;99.90
32446;DHT22;18899;50.748;7.102;2023-05-10T12:11:05;21.40;99.90
32446;DHT22;18899;50.748;7.102;2023-05-10T12:13:30;21.10;99.90
32446;DHT22;18899;50.748;7.102;2023-05-10T12:15:59;21.20;99.90
32446;DHT22;18899;50.748;7.102;2023-05-10T12:18:25;20.60;99.90
32446;DHT22;18899;50.748;7.102;2023-05-10T12:20:54;20.40;99.90
32446;DHT22;18899;50.748;7.102;2023-05-10T12:23:28;20.30;99.90
32446;DHT22;18899;50.748;7.102;2023-05-10T12:25:53;19.70;99.90
32446;DHT22;18899;50.748;7.102;2023-05-10T12:28:19;19.60;99.90
32446;DHT22;18899;50.748;7.102;2023-05-10T12:30:45;19.60;99.90
32446;DHT22;18899;50.748;7.102;2023-05-10T12:33:12;19.50;99.90
32446;DHT22;18899;50.748;7.102;2023-05-10T12:35:54;19.40;99.90
32446;DHT22;18899;50.748;7.102;2023-05-10T12:38:40;19.20;99.90
32446;DHT22;18899;50.748;7.102;2023-05-10T12:41:12;19.60;99.90
32446;DHT22;18899;50.748;7.102;2023-05-10T12:43:38;19.70;99.90
32446;DHT22;18899;50.748;7.102;2023-05-10T12:46:15;19.50;99.90
32446;DHT22;18899;50.748;7.102;2023-05-10T12:48:42;19.20;99.90
32446;DHT22;18899;50.748;7.102;2023-05-10T12:51:09;18.80;99.90
32446;DHT22;18899;50.748;7.102;2023-05-10T12:53:40;18.30;99.90
32446;DHT22;18899;50.748;7.102;2023-05-10T12:56:06;17.90;99.90
32446;DHT22;18899;50.748;7.102;2023-05-10T12:58:31;17.60;99.90
32446;DHT22;18899;50.748;7.102;2023-05-10T13:00:58;17.40;99.90
32446;DHT22;18899;50.748;7.102;2023-05-10T13:03:24;17.40;99.90
32446;DHT22;18899;50.748;7.102;2023-05-10T13:05:50;17.50;99.90
32446;DHT22;18899;50.748;7.102;2023-05-10T13:08:15;17.50;99.90
32446;DHT22;18899;50.748;7.102;2023-05-10T13:10:41;17.60;99.90
32446;DHT22;18899;50.748;7.102;2023-05-10T13:13:07;17.70;99.90
32446;DHT22;18899;50.748;7.102;2023-05-10T13:15:35;17.50;99.90
32446;DHT22;18899;50.748;7.102;2023-05-10T13:18:01;17.50;99.90
32446;DHT22;18899;50.748;7.102;2023-05-10T13:20:26;17.60;99.90
32446;DHT22;18899;50.748;7.102;2023-05-10T13:22:52;17.70;99.90
32446;DHT22;18899;50.748;7.102;2023-05-10T13:25:18;17.90;99.90
32446;DHT22;18899;50.748;7.102;2023-05-10T13:27:44;18.30;99.90
32446;DHT22;18899;50.748;7.102;2023-05-10T13:30:10;18.80;99.90
32446;DHT22;18899;50.748;7.102;2023-05-10T13:32:36;19.30;99.90
32446;DHT22;18899;50.748;7.102;2023-05-10T13:35:02;19.50;99.90
32446;DHT22;18899;50.748;7.102;2023-05-10T13:37:29;19.70;99.90
32446;DHT22;18899;50.748;7.102;2023-05-10T13:39:55;19.90;99.90
32446;DHT22;18899;50.748;7.102;2023-05-10T13:42:22;19.80;99.90
32446;DHT22;18899;50.748;7.102;2023-05-10T13:44:48;19.30;99.90
32446;DHT22;18899;50.748;7.102;2023-05-10T13:47:13;18.70;99.90
32446;DHT22;18899;50.748;7.102;2023-05-10T13:49:39;18.50;99.90
32446;DHT22;18899;50.748;7.102;2023-05-10T13:52:04;18.60;99.90
32446;DHT22;18899;50.748;7.102;2023-05-10T13:54:33;18.60;99.90
32446;DHT22;18899;50.748;7.102;2023-05-10T13:56:59;18.50;99.90
32446;DHT22;18899;50.748;7.102;2023-05-10T13:59:25;18.40;99.90
32446;DHT22;18899;50.748;7.102;2023-05-10T14:01:50;18.20;99.90
32446;DHT22;18899;50.748;7.102;2023-05-10T14:04:16;18.10;99.90
32446;DHT22;18899;50.748;7.102;2023-05-10T14:06:42;18.10;99.90
32446;DHT22;18899;50.748;7.102;2023-05-10T14:09:07;18.00;99.90
32446;DHT22;18899;50.748;7.102;2023-05-10T14:11:33;18.10;99.90
32446;DHT22;18899;50.748;7.102;2023-05-10T14:13:58;18.10;99.90
32446;DHT22;18899;50.748;7.102;2023-05-10T14:16:24;17.90;99.90
32446;DHT22;18899;50.748;7.102;2023-05-10T14:18:49;18.00;99.90
32446;DHT22;18899;50.748;7.102;2023-05-10T14:21:15;17.80;99.90
32446;DHT22;18899;50.748;7.102;2023-05-10T14:23:41;17.80;99.90
32446;DHT22;18899;50.748;7.102;2023-05-10T14:26:06;18.00;99.90
32446;DHT22;18899;50.748;7.102;2023-05-10T14:28:32;18.00;99.90
32446;DHT22;18899;50.748;7.102;2023-05-10T14:30:57;17.90;99.90
32446;DHT22;18899;50.748;7.102;2023-05-10T14:33:24;17.80;99.90
32446;DHT22;18899;50.748;7.102;2023-05-10T14:35:49;17.90;99.90
32446;DHT22;18899;50.748;7.102;2023-05-10T14:38:15;17.90;99.90
32446;DHT22;18899;50.748;7.102;2023-05-10T14:40:41;17.90;99.90
32446;DHT22;18899;50.748;7.102;2023-05-10T14:43:07;18.00;99.90
32446;DHT22;18899;50.748;7.102;2023-05-10T14:45:33;18.10;99.90
32446;DHT22;18899;50.748;7.102;2023-05-10T14:47:58;18.00;99.90
32446;DHT22;18899;50.748;7.102;2023-05-10T14:50:24;17.80;99.90
32446;DHT22;18899;50.748;7.102;2023-05-10T14:52:50;17.80;99.90
32446;DHT22;18899;50.748;7.102;2023-05-10T14:55:16;17.90;99.90
32446;DHT22;18899;50.748;7.102;2023-05-10T14:57:42;17.80;99.90
32446;DHT22;18899;50.748;7.102;2023-05-10T15:00:09;17.80;99.90
32446;DHT22;18899;50.748;7.102;2023-05-10T15:02:35;17.90;99.90
32446;DHT22;18899;50.748;7.102;2023-05-10T15:05:01;18.00;99.90
32446;DHT22;18899;50.748;7.102;2023-05-10T15:07:26;17.80;99.90
32446;DHT22;18899;50.748;7.102;2023-05-10T15:09:52;17.90;99.90
32446;DHT22;18899;50.748;7.102;2023-05-10T15:12:18;17.90;99.90
32446;DHT22;18899;50.748;7.102;2023-05-10T15:14:44;17.80;99.90
32446;DHT22;18899;50.748;7.102;2023-05-10T15:17:09;17.70;99.90
32446;DHT22;18899;50.748;7.102;2023-05-10T15:19:35;17.70;99.90
32446;DHT22;18899;50.748;7.102;2023-05-10T15:22:01;17.70;99.90
32446;DHT22;18899;50.748;7.102;2023-05-10T15:24:27;17.50;99.90
32446;DHT22;18899;50.748;7.102;2023-05-10T15:26:53;17.30;99.90
32446;DHT22;18899;50.748;7.102;2023-05-10T15:29:19;17.30;99.90
32446;DHT22;18899;50.748;7.102;2023-05-10T15:31:48;17.20;99.90
32446;DHT22;18899;50.748;7.102;2023-05-10T15:34:14;17.10;99.90
32446;DHT22;18899;50.748;7.102;2023-05-10T15:36:40;16.90;99.90
32446;DHT22;18899;50.748;7.102;2023-05-10T15:39:05;16.90;99.90
32446;DHT22;18899;50.748;7.102;2023-05-10T15:41:31;16.80;99.90
32446;DHT22;18899;50.748;7.102;2023-05-10T15:43:57;16.50;99.90
32446;DHT22;18899;50.748;7.102;2023-05-10T15:46:25;16.30;99.90
32446;DHT22;18899;50.748;7.102;2023-05-10T15:48:50;16.20;99.90
32446;DHT22;18899;50.748;7.102;2023-05-10T15:51:16;15.90;99.90
32446;DHT22;18899;50.748;7.102;2023-05-10T15:53:42;15.60;99.90
32446;DHT22;18899;50.748;7.102;2023-05-10T15:56:07;15.30;99.90
32446;DHT22;18899;50.748;7.102;2023-05-10T15:58:33;15.00;99.90